createdAt,value
2019-05-16T00:00:29.270Z,11.88
2019-05-16T00:02:31.487Z,11.91
2019-05-16T00:04:34.618Z,11.84
2019-05-16T00:06:39.129Z,11.89
2019-05-16T00:08:42.062Z,11.84
2019-05-16T00:10:44.120Z,11.80
2019-05-16T00:12:48.716Z,11.81
2019-05-16T00:14:50.518Z,11.80
2019-05-16T00:16:52.519Z,11.75
2019-05-16T00:18:54.710Z,11.75
2019-05-16T00:20:58.477Z,11.66
2019-05-16T00:23:00.691Z,11.75
2019-05-16T00:25:03.172Z,11.71
2019-05-16T00:27:08.283Z,11.68
2019-05-16T00:29:13.792Z,11.65
2019-05-16T00:31:18.168Z,11.60
2019-05-16T00:33:20.280Z,11.65
2019-05-16T00:35:22.852Z,11.65
2019-05-16T00:37:25.185Z,11.61
2019-05-16T00:39:28.058Z,11.69
2019-05-16T00:41:30.425Z,11.67
2019-05-16T00:43:32.753Z,11.53
2019-05-16T00:45:34.995Z,11.55
2019-05-16T00:47:38.877Z,11.55
2019-05-16T00:49:41.498Z,11.63
2019-05-16T00:51:43.559Z,11.62
2019-05-16T00:53:45.720Z,11.59
2019-05-16T00:55:48.108Z,11.62
2019-05-16T00:57:50.355Z,11.55
2019-05-16T00:59:53.319Z,11.52
2019-05-16T01:01:55.516Z,11.49
2019-05-16T01:03:58.624Z,11.49
2019-05-16T01:06:00.786Z,11.41
2019-05-16T01:08:03.034Z,11.42
2019-05-16T01:10:05.963Z,11.47
2019-05-16T01:12:08.476Z,11.37
2019-05-16T01:14:10.938Z,11.31
2019-05-16T01:16:13.321Z,11.37
2019-05-16T01:18:15.815Z,11.26
2019-05-16T01:20:19.168Z,11.28
2019-05-16T01:22:21.710Z,11.26
2019-05-16T01:24:23.884Z,11.27
2019-05-16T01:26:26.030Z,11.25
2019-05-16T01:28:28.413Z,11.25
2019-05-16T01:30:31.793Z,11.19
2019-05-16T01:32:33.913Z,11.14
2019-05-16T01:34:37.788Z,11.15
2019-05-16T01:36:40.747Z,11.18
2019-05-16T01:38:43.273Z,11.13
2019-05-16T01:40:45.308Z,11.11
2019-05-16T01:42:48.953Z,11.12
2019-05-16T01:44:51.474Z,11.14
2019-05-16T01:46:53.492Z,11.13
2019-05-16T01:48:57.655Z,11.11
2019-05-16T01:50:59.638Z,11.13
2019-05-16T01:53:01.781Z,11.08
2019-05-16T01:55:04.082Z,11.04
2019-05-16T01:57:08.115Z,10.98
2019-05-16T01:59:10.141Z,10.94
2019-05-16T02:01:15.882Z,10.94
2019-05-16T02:03:18.990Z,10.98
2019-05-16T02:05:21.268Z,10.98
2019-05-16T02:07:23.264Z,10.92
2019-05-16T02:09:28.056Z,10.85
2019-05-16T02:11:30.424Z,10.86
2019-05-16T02:13:32.468Z,10.90
2019-05-16T02:15:34.636Z,10.82
2019-05-16T02:17:38.419Z,10.81
2019-05-16T02:19:40.609Z,10.73
2019-05-16T02:21:42.764Z,10.77
2019-05-16T02:23:44.924Z,10.79
2019-05-16T02:25:48.954Z,10.77
2019-05-16T02:27:51.405Z,10.75
2019-05-16T02:29:53.388Z,10.74
2019-05-16T02:31:55.610Z,10.80
2019-05-16T02:33:57.801Z,10.69
2019-05-16T02:36:01.714Z,10.70
2019-05-16T02:38:03.913Z,10.67
2019-05-16T02:40:11.652Z,10.71
2019-05-16T02:42:12.332Z,10.66
2019-05-16T02:44:14.605Z,10.69
2019-05-16T02:46:16.837Z,10.65
2019-05-16T02:48:21.324Z,10.64
2019-05-16T02:50:22.930Z,10.54
2019-05-16T02:52:25.166Z,10.58
2019-05-16T02:54:27.278Z,10.59
2019-05-16T02:56:31.701Z,10.63
2019-05-16T02:58:33.712Z,10.56
2019-05-16T03:00:36.467Z,10.54
2019-05-16T03:02:41.918Z,10.56
2019-05-16T03:04:44.400Z,10.58
2019-05-16T03:06:47.480Z,10.44
2019-05-16T03:08:50.857Z,10.45
2019-05-16T03:10:54.276Z,10.44
2019-05-16T03:13:00.588Z,10.40
2019-05-16T03:15:02.514Z,10.40
2019-05-16T03:17:05.328Z,10.41
2019-05-16T03:19:11.307Z,10.36
2019-05-16T03:21:13.178Z,10.30
2019-05-16T03:23:15.269Z,10.28
2019-05-16T03:25:17.357Z,10.33
2019-05-16T03:27:21.566Z,10.33
2019-05-16T03:29:23.558Z,10.33
2019-05-16T03:31:25.730Z,10.37
2019-05-16T03:33:35.156Z,10.27
2019-05-16T03:35:34.173Z,10.33
2019-05-16T03:37:50.205Z,10.31
2019-05-16T03:39:40.768Z,10.35
2019-05-16T03:41:43.115Z,10.34
2019-05-16T03:43:44.889Z,10.31
2019-05-16T03:45:47.007Z,10.31
2019-05-16T03:47:51.137Z,10.35
2019-05-16T03:49:53.573Z,10.34
2019-05-16T03:51:55.615Z,10.26
2019-05-16T03:53:58.246Z,10.23
2019-05-16T03:56:01.787Z,10.25
2019-05-16T03:58:03.780Z,10.26
2019-05-16T04:00:06.041Z,10.28
2019-05-16T04:02:10.730Z,10.28
2019-05-16T04:04:12.355Z,10.32
2019-05-16T04:06:14.603Z,10.33
2019-05-16T04:08:20.662Z,10.36
2019-05-16T04:10:21.585Z,10.40
2019-05-16T04:12:24.082Z,10.39
2019-05-16T04:14:26.060Z,10.45
2019-05-16T04:16:31.072Z,10.45
2019-05-16T04:18:32.420Z,10.42
2019-05-16T04:20:34.763Z,10.41
2019-05-16T04:22:36.865Z,10.36
2019-05-16T04:24:41.763Z,10.38
2019-05-16T04:26:44.150Z,10.35
2019-05-16T04:28:46.134Z,10.35
2019-05-16T04:30:50.783Z,10.36
2019-05-16T04:32:52.308Z,10.28
2019-05-16T04:34:54.266Z,10.36
2019-05-16T04:36:56.578Z,10.35
2019-05-16T04:39:01.808Z,10.34
2019-05-16T04:41:03.320Z,10.37
2019-05-16T04:43:05.463Z,10.32
2019-05-16T04:45:07.912Z,10.31
2019-05-16T04:47:10.997Z,10.28
2019-05-16T04:49:13.631Z,10.26
2019-05-16T04:51:15.332Z,10.32
2019-05-16T04:53:20.519Z,10.31
2019-05-16T04:55:21.616Z,10.34
2019-05-16T04:57:23.606Z,10.36
2019-05-16T04:59:25.594Z,10.39
2019-05-16T05:01:30.653Z,10.45
2019-05-16T05:03:31.996Z,10.45
2019-05-16T05:05:34.268Z,10.48
2019-05-16T05:07:36.543Z,10.50
2019-05-16T05:09:40.925Z,10.54
2019-05-16T05:11:42.721Z,10.55
2019-05-16T05:13:44.889Z,10.60
2019-05-16T05:15:47.031Z,10.53
2019-05-16T05:17:50.289Z,10.67
2019-05-16T05:19:52.701Z,10.72
2019-05-16T05:21:54.782Z,10.71
2019-05-16T05:23:57.123Z,10.76
2019-05-16T05:26:00.282Z,10.78
2019-05-16T05:28:02.536Z,10.80
2019-05-16T05:30:05.113Z,10.78
2019-05-16T05:32:07.563Z,10.83
2019-05-16T05:34:10.599Z,10.93
2019-05-16T05:36:14.125Z,10.99
2019-05-16T05:38:16.289Z,11.03
2019-05-16T05:40:20.096Z,10.96
2019-05-16T05:42:22.407Z,10.92
2019-05-16T05:44:25.522Z,10.95
2019-05-16T05:46:27.542Z,10.98
2019-05-16T05:48:31.150Z,11.15
2019-05-16T05:50:33.333Z,10.98
2019-05-16T05:52:35.449Z,11.08
2019-05-16T05:54:40.587Z,10.92
2019-05-16T05:56:41.711Z,10.97
2019-05-16T05:58:43.500Z,11.07
2019-05-16T06:01:31.265Z,11.25
2019-05-16T06:03:33.154Z,11.16
2019-05-16T06:05:35.348Z,11.25
2019-05-16T06:07:40.187Z,11.31
2019-05-16T06:09:52.451Z,11.44
2019-05-16T06:11:50.164Z,11.60
2019-05-16T06:13:52.429Z,11.67
2019-05-16T06:15:54.647Z,11.87
2019-05-16T06:17:56.628Z,11.99
2019-05-16T06:20:00.295Z,12.01
2019-05-16T06:22:02.807Z,12.00
2019-05-16T06:24:04.821Z,12.23
2019-05-16T06:26:06.963Z,12.29
2019-05-16T06:28:10.587Z,12.46
2019-05-16T06:30:12.985Z,12.41
2019-05-16T06:32:15.086Z,12.24
2019-05-16T06:34:17.398Z,12.40
2019-05-16T06:36:20.478Z,12.56
2019-05-16T06:38:22.681Z,12.59
2019-05-16T06:40:25.933Z,12.66
2019-05-16T06:42:29.895Z,12.90
2019-05-16T06:44:31.904Z,13.01
2019-05-16T06:46:44.049Z,12.89
2019-05-16T06:48:39.832Z,12.90
2019-05-16T06:50:43.004Z,12.78
2019-05-16T06:52:45.912Z,12.88
2019-05-16T06:54:50.381Z,13.13
2019-05-16T06:56:51.982Z,13.18
2019-05-16T06:58:54.621Z,13.32
2019-05-16T07:01:00.425Z,13.20
2019-05-16T07:03:01.949Z,13.28
2019-05-16T07:05:04.652Z,13.45
2019-05-16T07:07:09.491Z,13.45
2019-05-16T07:09:10.844Z,13.47
2019-05-16T07:11:12.932Z,13.57
2019-05-16T07:13:14.944Z,13.65
2019-05-16T07:15:20.463Z,13.46
2019-05-16T07:17:22.581Z,13.31
2019-05-16T07:19:24.814Z,13.42
2019-05-16T07:21:26.802Z,13.42
2019-05-16T07:23:29.963Z,13.16
2019-05-16T07:25:32.235Z,13.17
2019-05-16T07:27:34.275Z,13.24
2019-05-16T07:29:36.406Z,13.32
2019-05-16T07:31:40.611Z,13.33
2019-05-16T07:33:42.590Z,13.18
2019-05-16T07:35:46.177Z,13.36
2019-05-16T07:37:49.857Z,13.36
2019-05-16T07:39:51.655Z,13.56
2019-05-16T07:41:54.005Z,13.64
2019-05-16T07:43:56.064Z,13.87
2019-05-16T07:46:00.227Z,13.99
2019-05-16T07:48:02.539Z,14.04
2019-05-16T07:50:05.795Z,14.02
2019-05-16T07:52:09.899Z,13.94
2019-05-16T07:54:12.007Z,13.73
2019-05-16T07:56:14.006Z,13.89
2019-05-16T07:58:16.242Z,13.95
2019-05-16T08:00:21.533Z,14.13
2019-05-16T08:02:22.921Z,14.17
2019-05-16T08:04:26.449Z,14.37
2019-05-16T08:06:33.697Z,14.55
2019-05-16T08:08:32.586Z,14.23
2019-05-16T08:10:41.869Z,14.27
2019-05-16T08:12:40.653Z,14.72
2019-05-16T08:14:42.705Z,14.88
2019-05-16T08:16:44.815Z,15.09
2019-05-16T08:18:50.362Z,14.47
2019-05-16T08:20:52.704Z,14.63
2019-05-16T08:22:54.877Z,14.65
2019-05-16T08:25:00.125Z,14.44
2019-05-16T08:27:01.996Z,14.95
2019-05-16T08:29:04.102Z,15.16
2019-05-16T08:31:11.676Z,15.50
2019-05-16T08:35:20.841Z,15.33
2019-05-16T08:39:26.088Z,15.03
2019-05-16T08:41:31.275Z,15.02
2019-05-16T08:43:32.627Z,14.94
2019-05-16T08:45:34.711Z,15.29
2019-05-16T08:47:36.722Z,15.69
2019-05-16T08:49:42.196Z,15.20
2019-05-16T08:51:43.309Z,15.28
2019-05-16T08:53:45.277Z,15.37
2019-05-16T08:55:50.344Z,15.74
2019-05-16T08:57:53.213Z,15.91
2019-05-16T08:59:55.433Z,15.81
2019-05-16T09:02:02.368Z,16.21
2019-05-16T09:04:01.986Z,15.99
2019-05-16T09:06:04.004Z,15.96
2019-05-16T09:08:06.273Z,15.82
2019-05-16T09:10:28.428Z,15.19
2019-05-16T09:10:34.106Z,15.38
2019-05-16T09:10:41.206Z,15.63
2019-05-16T09:12:13.060Z,16.48
2019-05-16T09:14:17.198Z,16.96
2019-05-16T09:16:19.343Z,17.09
2019-05-16T09:18:21.328Z,16.48
2019-05-16T09:20:23.667Z,16.67
2019-05-16T09:22:28.131Z,16.55
2019-05-16T09:24:29.698Z,16.33
2019-05-16T09:26:32.318Z,16.50
2019-05-16T09:28:34.289Z,16.41
2019-05-16T09:30:37.111Z,16.55
2019-05-16T09:32:42.638Z,16.32
2019-05-16T09:34:43.517Z,16.27
2019-05-16T09:36:48.075Z,16.51
2019-05-16T09:38:49.712Z,15.74
2019-05-16T09:40:51.734Z,15.80
2019-05-16T09:42:56.681Z,15.76
2019-05-16T09:44:58.159Z,15.86
2019-05-16T09:47:00.175Z,15.60
2019-05-16T09:49:16.829Z,15.28
2019-05-16T09:51:06.755Z,15.24
2019-05-16T09:53:08.802Z,15.25
2019-05-16T09:55:13.965Z,15.34
2019-05-16T09:57:17.494Z,15.03
2019-05-16T09:59:20.273Z,15.18
2019-05-16T10:01:21.906Z,15.20
2019-05-16T10:03:24.211Z,15.33
2019-05-16T10:05:27.023Z,15.29
2019-05-16T10:07:28.955Z,15.15
2019-05-16T10:09:44.105Z,15.02
2019-05-16T10:11:40.866Z,15.13
2019-05-16T10:13:39.224Z,15.18
2019-05-16T10:15:41.777Z,15.06
2019-05-16T10:17:43.932Z,14.94
2019-05-16T10:19:47.578Z,14.95
2019-05-16T10:21:50.103Z,15.22
2019-05-16T10:23:52.098Z,15.09
2019-05-16T10:25:56.683Z,15.33
2019-05-16T10:27:58.544Z,15.54
2019-05-16T10:30:01.925Z,15.53
2019-05-16T10:32:07.437Z,15.58
2019-05-16T10:34:09.031Z,15.80
2019-05-16T10:36:11.040Z,15.83
2019-05-16T10:38:13.040Z,15.88
2019-05-16T10:40:18.286Z,15.37
2019-05-16T10:42:28.060Z,15.66
2019-05-16T10:44:23.987Z,15.78
2019-05-16T10:46:26.982Z,15.91
2019-05-16T10:48:29.114Z,16.03
2019-05-16T10:50:31.166Z,16.35
2019-05-16T10:52:33.533Z,16.22
2019-05-16T10:54:36.987Z,16.22
2019-05-16T10:56:40.398Z,16.49
2019-05-16T10:59:03.839Z,16.51
2019-05-16T11:01:11.283Z,16.53
2019-05-16T11:02:51.278Z,16.15
2019-05-16T11:05:02.820Z,16.15
2019-05-16T11:06:57.378Z,16.26
2019-05-16T11:08:59.638Z,15.90
2019-05-16T11:11:02.030Z,16.31
2019-05-16T11:13:07.868Z,16.51
2019-05-16T11:15:11.845Z,16.64
2019-05-16T11:17:14.562Z,16.67
2019-05-16T11:19:21.362Z,16.79
2019-05-16T11:21:20.320Z,16.76
2019-05-16T11:23:24.078Z,16.59
2019-05-16T11:25:31.756Z,16.81
2019-05-16T11:27:30.409Z,16.83
2019-05-16T11:29:32.721Z,16.75
2019-05-16T11:31:37.147Z,16.68
2019-05-16T11:33:38.817Z,16.60
2019-05-16T11:35:41.413Z,16.96
2019-05-16T11:37:47.072Z,16.97
2019-05-16T11:39:48.633Z,17.15
2019-05-16T11:41:50.984Z,17.13
2019-05-16T11:43:52.997Z,17.13
2019-05-16T11:45:57.238Z,17.16
2019-05-16T11:47:59.413Z,17.40
2019-05-16T11:50:00.988Z,17.50
2019-05-16T11:52:03.421Z,17.58
2019-05-16T11:54:06.921Z,17.07
2019-05-16T11:56:09.152Z,16.88
2019-05-16T11:58:11.186Z,16.94
2019-05-16T12:00:17.936Z,16.75
2019-05-16T12:02:19.418Z,16.73
2019-05-16T12:04:21.442Z,16.80
2019-05-16T12:06:23.707Z,16.39
2019-05-16T12:08:26.619Z,16.88
2019-05-16T12:10:28.688Z,17.10
2019-05-16T12:12:30.821Z,17.28
2019-05-16T12:14:32.824Z,17.20
2019-05-16T12:16:37.792Z,17.01
2019-05-16T12:18:39.974Z,17.01
2019-05-16T12:20:41.999Z,16.90
2019-05-16T12:22:44.056Z,17.04
2019-05-16T12:24:47.742Z,16.93
2019-05-16T12:26:49.891Z,17.21
2019-05-16T12:28:52.138Z,16.99
2019-05-16T12:30:56.322Z,17.35
2019-05-16T12:32:58.460Z,17.44
2019-05-16T12:35:00.476Z,17.47
2019-05-16T12:37:02.640Z,17.41
2019-05-16T12:39:08.916Z,17.43
2019-05-16T12:41:11.916Z,17.69
2019-05-16T12:43:14.654Z,17.61
2019-05-16T12:45:17.397Z,17.71
2019-05-16T12:47:20.406Z,17.61
2019-05-16T12:49:22.876Z,17.69
2019-05-16T12:51:26.458Z,17.36
2019-05-16T12:53:31.692Z,17.42
2019-05-16T12:55:32.738Z,17.54
2019-05-16T12:57:38.317Z,17.41
2019-05-16T12:59:42.147Z,17.28
2019-05-16T13:01:43.343Z,17.25
2019-05-16T13:03:47.875Z,17.33
2019-05-16T13:05:49.581Z,17.55
2019-05-16T13:07:51.671Z,18.09
2019-05-16T13:09:54.016Z,18.23
2019-05-16T13:11:57.792Z,18.33
2019-05-16T13:14:06.526Z,18.34
2019-05-16T13:16:04.186Z,18.56
2019-05-16T13:18:09.049Z,18.65
2019-05-16T13:20:11.954Z,18.27
2019-05-16T13:22:16.559Z,18.34
2019-05-16T13:24:18.843Z,18.14
2019-05-16T13:26:21.234Z,17.91
2019-05-16T13:28:23.424Z,17.67
2019-05-16T13:30:26.868Z,17.69
2019-05-16T13:32:29.124Z,17.50
2019-05-16T13:34:31.103Z,17.59
2019-05-16T13:36:33.438Z,17.54
2019-05-16T13:38:35.807Z,17.43
2019-05-16T13:40:37.825Z,17.27
2019-05-16T13:42:39.900Z,17.16
2019-05-16T13:44:42.115Z,17.44
2019-05-16T13:46:46.632Z,17.44
2019-05-16T13:48:48.127Z,17.61
2019-05-16T13:50:50.347Z,17.73
2019-05-16T13:52:52.543Z,17.69
2019-05-16T13:54:56.411Z,17.71
2019-05-16T13:56:58.904Z,17.73
2019-05-16T13:59:01.228Z,17.88
2019-05-16T14:01:07.608Z,17.94
2019-05-16T14:03:08.573Z,18.11
2019-05-16T14:05:12.181Z,17.72
2019-05-16T14:07:17.001Z,17.68
2019-05-16T14:09:18.758Z,17.93
2019-05-16T14:11:20.606Z,18.11
2019-05-16T14:13:22.773Z,17.91
2019-05-16T14:15:27.093Z,18.01
2019-05-16T14:17:29.250Z,18.06
2019-05-16T14:19:32.569Z,18.05
2019-05-16T14:21:34.835Z,18.24
2019-05-16T14:23:37.945Z,18.16
2019-05-16T14:25:40.531Z,18.16
2019-05-16T14:27:42.823Z,17.80
2019-05-16T14:29:47.495Z,18.04
2019-05-16T14:31:49.308Z,17.94
2019-05-16T14:33:51.348Z,17.92
2019-05-16T14:35:53.587Z,18.00
2019-05-16T14:37:58.122Z,18.11
2019-05-16T14:40:01.426Z,18.10
2019-05-16T14:42:04.155Z,18.03
2019-05-16T14:44:09.300Z,18.26
2019-05-16T14:46:11.734Z,18.20
2019-05-16T14:48:13.888Z,18.17
2019-05-16T14:50:17.033Z,18.05
2019-05-16T14:52:19.542Z,18.17
2019-05-16T14:54:21.306Z,18.22
2019-05-16T14:56:23.494Z,18.10
2019-05-16T14:58:30.379Z,18.23
2019-05-16T15:00:30.071Z,18.11
2019-05-16T15:02:32.303Z,18.09
2019-05-16T15:04:37.410Z,18.15
2019-05-16T15:06:38.925Z,17.96
2019-05-16T15:08:41.100Z,18.14
2019-05-16T15:10:43.346Z,18.26
2019-05-16T15:12:46.921Z,18.13
2019-05-16T15:14:49.237Z,18.16
2019-05-16T15:16:52.495Z,17.97
2019-05-16T15:18:54.492Z,18.10
2019-05-16T15:20:57.490Z,18.03
2019-05-16T15:23:00.910Z,17.98
2019-05-16T15:25:03.165Z,18.16
2019-05-16T15:27:07.904Z,17.97
2019-05-16T15:29:09.352Z,18.08
2019-05-16T15:31:11.498Z,18.08
2019-05-16T15:33:13.493Z,17.88
2019-05-16T15:35:18.157Z,17.91
2019-05-16T15:37:20.177Z,17.95
2019-05-16T15:39:22.210Z,18.01
2019-05-16T15:41:24.486Z,18.04
2019-05-16T15:43:27.529Z,18.21
2019-05-16T15:45:43.074Z,18.06
2019-05-16T15:47:43.068Z,18.08
2019-05-16T15:49:47.567Z,18.06
2019-05-16T15:51:49.670Z,18.05
2019-05-16T15:53:51.880Z,17.83
2019-05-16T15:55:57.545Z,17.93
2019-05-16T15:57:58.942Z,18.10
2019-05-16T16:00:02.719Z,18.07
2019-05-16T16:02:07.257Z,18.00
2019-05-16T16:04:09.614Z,18.00
2019-05-16T16:06:12.085Z,18.02
2019-05-16T16:08:13.799Z,18.10
2019-05-16T16:10:19.570Z,18.24
2019-05-16T16:12:21.944Z,18.18
2019-05-16T16:14:24.146Z,18.26
2019-05-16T16:16:26.812Z,18.20
2019-05-16T16:18:29.346Z,18.34
2019-05-16T16:20:32.801Z,18.36
2019-05-16T16:22:37.542Z,18.00
2019-05-16T16:24:39.337Z,18.00
2019-05-16T16:26:42.752Z,18.07
2019-05-16T16:28:44.540Z,18.21
2019-05-16T16:30:47.929Z,18.01
2019-05-16T16:32:50.241Z,18.07
2019-05-16T16:34:52.290Z,17.93
2019-05-16T16:36:56.808Z,17.97
2019-05-16T16:38:58.737Z,18.05
2019-05-16T16:41:00.727Z,18.03
2019-05-16T16:43:02.998Z,17.96
2019-05-16T16:45:07.249Z,17.86
2019-05-16T16:47:09.447Z,17.77
2019-05-16T16:49:11.779Z,17.80
2019-05-16T16:51:14.185Z,17.52
2019-05-16T16:53:17.676Z,17.35
2019-05-16T16:55:20.206Z,17.44
2019-05-16T16:57:22.237Z,17.53
2019-05-16T16:59:24.280Z,17.26
2019-05-16T17:01:27.314Z,17.35
2019-05-16T17:03:29.451Z,17.39
2019-05-16T17:05:31.504Z,17.43
2019-05-16T17:07:36.998Z,17.42
2019-05-16T17:09:38.186Z,17.43
2019-05-16T17:11:40.560Z,17.18
2019-05-16T17:13:43.044Z,17.07
2019-05-16T17:15:47.104Z,16.90
2019-05-16T17:17:48.948Z,16.97
2019-05-16T17:19:51.021Z,16.91
2019-05-16T17:22:06.291Z,16.87
2019-05-16T17:23:57.236Z,17.06
2019-05-16T17:25:59.614Z,16.94
2019-05-16T17:28:02.073Z,16.97
2019-05-16T17:30:12.353Z,16.97
2019-05-16T17:32:16.555Z,17.15
2019-05-16T17:34:18.572Z,16.98
2019-05-16T17:36:20.796Z,17.05
2019-05-16T17:38:23.172Z,17.17
2019-05-16T17:40:27.392Z,17.17
2019-05-16T17:42:29.507Z,17.25
2019-05-16T17:44:32.036Z,17.17
2019-05-16T17:46:40.047Z,17.07
2019-05-16T17:48:38.402Z,17.17
2019-05-16T17:50:40.763Z,16.89
2019-05-16T17:52:42.959Z,16.98
2019-05-16T17:54:45.062Z,16.75
2019-05-16T17:56:47.342Z,16.78
2019-05-16T17:58:49.400Z,16.59
2019-05-16T18:00:51.465Z,16.41
2019-05-16T18:02:53.621Z,16.43
2019-05-16T18:04:56.722Z,16.39
2019-05-16T18:06:58.936Z,16.41
2019-05-16T18:09:01.250Z,16.34
2019-05-16T18:11:04.102Z,16.32
2019-05-16T18:13:07.836Z,16.17
2019-05-16T18:15:10.928Z,16.04
2019-05-16T18:17:17.811Z,16.11
2019-05-16T18:19:20.070Z,16.05
2019-05-16T18:21:22.426Z,16.04
2019-05-16T18:23:24.472Z,15.98
2019-05-16T18:25:26.912Z,15.90
2019-05-16T18:27:28.881Z,15.86
2019-05-16T18:29:31.664Z,15.83
2019-05-16T18:31:33.758Z,15.77
2019-05-16T18:33:37.094Z,15.80
2019-05-16T18:35:39.824Z,15.75
2019-05-16T18:37:41.606Z,15.66
2019-05-16T18:39:44.088Z,15.68
2019-05-16T18:41:47.232Z,15.60
2019-05-16T18:43:49.532Z,15.53
2019-05-16T18:45:51.673Z,15.42
2019-05-16T18:47:53.710Z,15.38
2019-05-16T18:49:57.371Z,15.27
2019-05-16T18:51:59.708Z,15.06
2019-05-16T18:54:01.880Z,14.93
2019-05-16T18:56:04.038Z,14.91
2019-05-16T18:58:08.417Z,14.85
2019-05-16T19:00:11.149Z,14.80
2019-05-16T19:02:13.289Z,14.74
2019-05-16T19:04:17.531Z,14.81
2019-05-16T19:06:20.026Z,14.80
2019-05-16T19:08:22.259Z,14.83
2019-05-16T19:10:26.956Z,14.74
2019-05-16T19:12:29.222Z,14.67
2019-05-16T19:14:31.283Z,14.54
2019-05-16T19:16:33.575Z,14.59
2019-05-16T19:18:36.879Z,14.60
2019-05-16T19:20:39.080Z,14.38
2019-05-16T19:22:41.285Z,14.36
2019-05-16T19:24:43.427Z,14.34
2019-05-16T19:26:46.946Z,14.30
2019-05-16T19:28:49.522Z,14.18
2019-05-16T19:30:51.570Z,14.10
2019-05-16T19:32:53.959Z,14.09
2019-05-16T19:34:57.437Z,14.00
2019-05-16T19:36:59.672Z,13.91
2019-05-16T19:39:01.766Z,13.92
2019-05-16T19:41:08.099Z,13.82
2019-05-16T19:43:09.623Z,13.88
2019-05-16T19:45:12.247Z,13.92
2019-05-16T19:47:15.481Z,13.84
2019-05-16T19:49:17.508Z,13.82
2019-05-16T19:51:19.974Z,13.83
2019-05-16T19:53:22.062Z,13.86
2019-05-16T19:55:24.213Z,13.86
2019-05-16T19:57:27.608Z,13.94
2019-05-16T19:59:29.992Z,14.00
2019-05-16T20:01:31.851Z,14.00
2019-05-16T20:03:36.396Z,13.94
2019-05-16T20:05:38.420Z,13.99
2019-05-16T20:07:40.611Z,13.91
2019-05-16T20:09:43.023Z,13.92
2019-05-16T20:11:46.401Z,13.88
2019-05-16T20:13:48.812Z,13.88
2019-05-16T20:15:51.014Z,13.92
2019-05-16T20:17:56.129Z,13.94
2019-05-16T20:19:57.511Z,13.84
2019-05-16T20:22:00.101Z,13.78
2019-05-16T20:24:02.582Z,13.75
2019-05-16T20:26:04.577Z,13.83
2019-05-16T20:28:09.126Z,13.79
2019-05-16T20:30:11.469Z,13.77
2019-05-16T20:32:16.710Z,13.89
2019-05-16T20:34:18.674Z,13.82
2019-05-16T20:36:21.109Z,13.85
2019-05-16T20:38:22.863Z,13.83
2019-05-16T20:40:26.557Z,13.88
2019-05-16T20:42:28.941Z,13.72
2019-05-16T20:44:31.002Z,13.71
2019-05-16T20:46:33.095Z,13.69
2019-05-16T20:48:36.910Z,13.69
2019-05-16T20:50:39.228Z,13.60
2019-05-16T20:52:41.633Z,13.57
2019-05-16T20:54:44.046Z,13.51
2019-05-16T20:56:49.206Z,13.64
2019-05-16T20:58:50.567Z,13.58
2019-05-16T21:00:52.611Z,13.57
2019-05-16T21:02:57.356Z,13.46
2019-05-16T21:04:59.176Z,13.43
2019-05-16T21:07:09.970Z,13.41
2019-05-16T21:09:06.755Z,13.45
2019-05-16T21:11:09.041Z,13.35
2019-05-16T21:13:11.664Z,13.41
2019-05-16T21:15:14.251Z,13.32
2019-05-16T21:17:17.457Z,13.32
2019-05-16T21:19:20.233Z,13.40
2019-05-16T21:21:22.471Z,13.43
2019-05-16T21:23:27.203Z,13.41
2019-05-16T21:25:28.635Z,13.26
2019-05-16T21:27:30.712Z,13.24
2019-05-16T21:29:32.900Z,13.30
2019-05-16T21:31:36.856Z,13.28
2019-05-16T21:33:39.185Z,13.30
2019-05-16T21:35:41.224Z,13.25
2019-05-16T21:37:43.466Z,13.31
2019-05-16T21:39:47.491Z,13.24
2019-05-16T21:41:49.760Z,13.13
2019-05-16T21:43:52.104Z,13.00
2019-05-16T21:45:53.864Z,13.10
2019-05-16T21:47:56.841Z,13.14
2019-05-16T21:49:59.409Z,13.10
2019-05-16T21:52:02.733Z,12.99
2019-05-16T21:54:07.019Z,12.98
2019-05-16T21:56:09.029Z,12.96
2019-05-16T21:58:11.139Z,13.00
2019-05-16T22:00:20.613Z,13.00
2019-05-16T22:02:26.569Z,13.04
2019-05-16T22:04:30.137Z,12.99
2019-05-16T22:06:32.534Z,13.04
2019-05-16T22:08:36.708Z,12.94
2019-05-16T22:10:40.974Z,13.01
2019-05-16T22:12:47.522Z,12.97
2019-05-16T22:14:51.273Z,13.03
2019-05-16T22:16:53.636Z,13.04
2019-05-16T22:18:57.116Z,13.01
2019-05-16T22:20:59.086Z,13.05
2019-05-16T22:23:01.144Z,13.05
2019-05-16T22:25:03.936Z,13.09
2019-05-16T22:27:07.548Z,13.15
2019-05-16T22:29:09.274Z,13.09
2019-05-16T22:31:11.312Z,13.14
2019-05-16T22:33:13.656Z,13.07
2019-05-16T22:35:17.908Z,13.12
2019-05-16T22:37:19.997Z,13.02
2019-05-16T22:39:22.281Z,13.09
2019-05-16T22:41:26.451Z,13.17
2019-05-16T22:43:28.446Z,12.99
2019-05-16T22:46:41.181Z,13.14
2019-05-16T22:48:43.454Z,13.00
2019-05-16T22:50:45.852Z,12.93
2019-05-16T22:52:48.182Z,13.00
2019-05-16T22:54:50.340Z,13.13
2019-05-16T22:56:52.490Z,13.14
2019-05-16T22:58:56.415Z,13.18
2019-05-16T23:00:59.114Z,13.19
2019-05-16T23:03:01.266Z,13.18
2019-05-16T23:05:04.200Z,13.24
2019-05-16T23:07:07.880Z,13.18
2019-05-16T23:09:09.913Z,13.13
2019-05-16T23:11:12.373Z,13.19
2019-05-16T23:13:14.031Z,13.26
2019-05-16T23:15:17.104Z,13.29
2019-05-16T23:17:19.688Z,13.31
2019-05-16T23:19:21.480Z,13.26
2019-05-16T23:21:23.478Z,13.34
2019-05-16T23:23:26.671Z,13.32
2019-05-16T23:25:29.000Z,13.35
2019-05-16T23:27:31.032Z,13.40
2019-05-16T23:29:33.493Z,13.35
2019-05-16T23:31:36.593Z,13.31
2019-05-16T23:33:38.683Z,13.24
2019-05-16T23:35:42.121Z,13.23
2019-05-16T23:37:46.369Z,13.25
2019-05-16T23:39:48.730Z,13.26
2019-05-16T23:41:50.980Z,13.25
2019-05-16T23:43:52.973Z,13.26
2019-05-16T23:45:56.381Z,13.26
2019-05-16T23:47:58.924Z,13.29
2019-05-16T23:50:00.729Z,13.28
2019-05-16T23:52:02.925Z,13.33
2019-05-16T23:54:06.671Z,13.35
2019-05-16T23:56:09.055Z,13.27
2019-05-16T23:58:11.386Z,13.33
